Kings Mountain, North Carolina
Current Conditions -  °F | °C
As of 7:54 AM on Saturday 22 Nov 2014 (Local Time) from KAKH Reporting Station
Clear Clear  
Wind Chill: 30°   Ceiling: Unl
Heat Index: 30°   Visibility: 10mi
Dew Point: 19°   Wind: 3mph
Humidity: 64%   Direction: 360°N
Pressure: 30.55"   Gusts: NA
Location:  35.24°N, 81.34°W
Report Text: KAKH 221254Z AUTO 36003KT 10SM CLR M01/M07 A3055 RMK AO2 SLP353 T10111072
Loading
Personal Weather Stations






























Interactive Weather Map New forecast layout! Learn more

10-Day Weather Forecast

Advertisements
Track Severe Weather on mobile